createdAt,value
2019-03-12T00:00:48.070Z,3.71
2019-03-12T00:03:17.345Z,3.71
2019-03-12T00:05:46.587Z,3.73
2019-03-12T00:08:15.817Z,3.74
2019-03-12T00:10:45.071Z,3.73
2019-03-12T00:13:14.329Z,3.75
2019-03-12T00:15:43.577Z,3.75
2019-03-12T00:18:12.824Z,3.78
2019-03-12T00:20:42.097Z,3.79
2019-03-12T00:23:11.371Z,3.78
2019-03-12T00:25:40.645Z,3.78
2019-03-12T00:28:09.906Z,3.79
2019-03-12T00:30:39.143Z,3.69
2019-03-12T00:33:08.483Z,3.64
2019-03-12T00:35:37.769Z,3.63
2019-03-12T00:38:06.973Z,3.63
2019-03-12T00:40:36.216Z,3.61
2019-03-12T00:43:05.466Z,3.61
2019-03-12T00:45:34.728Z,3.53
2019-03-12T00:48:03.956Z,3.61
2019-03-12T00:50:33.214Z,3.56
2019-03-12T00:53:02.438Z,3.54
2019-03-12T00:55:31.717Z,3.42
2019-03-12T00:58:00.947Z,3.36
2019-03-12T01:00:30.181Z,3.36
2019-03-12T01:02:59.436Z,3.33
2019-03-12T01:05:28.669Z,3.29
2019-03-12T01:07:57.933Z,3.36
2019-03-12T01:10:27.179Z,3.37
2019-03-12T01:12:56.443Z,3.41
2019-03-12T01:15:25.682Z,3.47
2019-03-12T01:17:54.926Z,3.43
2019-03-12T01:20:24.193Z,3.38
2019-03-12T01:22:53.462Z,3.44
2019-03-12T01:25:22.744Z,3.47
2019-03-12T01:27:52.007Z,3.42
2019-03-12T01:30:21.261Z,3.33
2019-03-12T01:32:50.525Z,3.29
2019-03-12T01:35:19.769Z,3.34
2019-03-12T01:37:49.029Z,3.25
2019-03-12T01:40:18.314Z,3.13
2019-03-12T01:42:47.576Z,2.87
2019-03-12T01:45:16.808Z,3.08
2019-03-12T01:47:46.063Z,3.05
2019-03-12T01:50:15.433Z,3.00
2019-03-12T01:52:44.717Z,3.14
2019-03-12T01:55:13.983Z,3.15
2019-03-12T01:57:43.234Z,3.28
2019-03-12T02:00:14.657Z,3.36
2019-03-12T02:02:43.896Z,3.41
2019-03-12T02:05:13.151Z,3.42
2019-03-12T02:07:42.402Z,3.45
2019-03-12T02:10:11.963Z,3.47
2019-03-12T02:12:41.237Z,3.47
2019-03-12T02:15:11.426Z,3.36
2019-03-12T02:17:40.763Z,3.26
2019-03-12T02:20:12.254Z,3.25
2019-03-12T02:22:41.535Z,3.19
2019-03-12T02:25:12.216Z,3.16
2019-03-12T02:27:41.434Z,3.00
2019-03-12T02:30:12.815Z,3.04
2019-03-12T02:32:44.501Z,2.91
2019-03-12T02:35:13.042Z,2.89
2019-03-12T02:37:42.310Z,2.80
2019-03-12T02:40:11.740Z,2.77
2019-03-12T02:42:41.016Z,2.69
2019-03-12T02:45:10.350Z,2.64
2019-03-12T02:47:39.789Z,2.67
2019-03-12T02:50:09.947Z,2.73
2019-03-12T02:52:39.209Z,2.77
2019-03-12T02:55:08.698Z,2.81
2019-03-12T02:57:38.850Z,2.88
2019-03-12T03:00:15.783Z,2.78
2019-03-12T03:02:45.026Z,2.78
2019-03-12T03:05:14.387Z,2.73
2019-03-12T03:07:57.850Z,2.74
2019-03-12T03:10:27.114Z,2.73
2019-03-12T03:12:56.479Z,2.78
2019-03-12T03:15:28.046Z,2.85
2019-03-12T03:17:57.314Z,2.95
2019-03-12T03:20:26.542Z,3.02
2019-03-12T03:22:55.801Z,3.07
2019-03-12T03:25:25.080Z,3.11
2019-03-12T03:27:54.326Z,3.10
2019-03-12T03:30:24.338Z,3.10
2019-03-12T03:32:53.778Z,3.05
2019-03-12T03:35:23.016Z,2.98
2019-03-12T03:38:04.325Z,3.06
2019-03-12T03:40:33.566Z,3.01
2019-03-12T03:43:02.805Z,3.04
2019-03-12T03:45:32.040Z,2.95
2019-03-12T03:48:01.307Z,2.91
2019-03-12T03:50:30.541Z,2.89
2019-03-12T03:52:59.899Z,2.94
2019-03-12T03:55:29.124Z,2.96
2019-03-12T03:57:58.558Z,3.02
2019-03-12T04:00:27.815Z,2.87
2019-03-12T04:02:57.062Z,3.00
2019-03-12T04:05:26.377Z,2.96
2019-03-12T04:07:55.640Z,3.18
2019-03-12T04:10:25.036Z,3.16
2019-03-12T04:12:54.264Z,3.10
2019-03-12T04:15:23.494Z,3.13
2019-03-12T04:17:52.757Z,3.02
2019-03-12T04:20:22.048Z,3.03
2019-03-12T04:22:51.319Z,3.00
2019-03-12T04:25:20.550Z,3.01
2019-03-12T04:27:49.845Z,3.04
2019-03-12T04:30:19.221Z,3.05
2019-03-12T04:32:48.454Z,3.02
2019-03-12T04:35:18.674Z,3.05
2019-03-12T04:37:47.992Z,2.92
2019-03-12T04:40:17.255Z,2.89
2019-03-12T04:42:46.524Z,2.94
2019-03-12T04:45:16.294Z,2.89
2019-03-12T04:47:45.625Z,2.90
2019-03-12T04:50:15.104Z,2.93
2019-03-12T04:52:44.364Z,2.94
2019-03-12T04:55:13.839Z,2.97
2019-03-12T04:57:43.134Z,3.00
2019-03-12T05:00:14.658Z,2.91
2019-03-12T05:02:43.948Z,2.91
2019-03-12T05:05:13.285Z,2.93
2019-03-12T05:07:42.534Z,2.94
2019-03-12T05:10:12.610Z,3.08
2019-03-12T05:12:41.896Z,3.07
2019-03-12T05:15:12.469Z,3.04
2019-03-12T05:17:41.984Z,2.99
2019-03-12T05:20:12.779Z,3.11
2019-03-12T05:22:42.034Z,3.10
2019-03-12T05:25:11.893Z,3.12
2019-03-12T05:27:41.200Z,3.09
2019-03-12T05:30:13.337Z,3.02
2019-03-12T05:32:42.625Z,3.02
2019-03-12T05:35:12.176Z,2.89
2019-03-12T05:37:41.484Z,2.92
2019-03-12T05:40:11.018Z,2.91
2019-03-12T05:42:47.134Z,2.90
2019-03-12T05:45:16.528Z,2.95
2019-03-12T05:47:45.784Z,2.98
2019-03-12T05:50:15.065Z,2.98
2019-03-12T05:52:44.352Z,3.03
2019-03-12T05:55:14.403Z,3.08
2019-03-12T05:57:44.334Z,3.04
2019-03-12T06:00:15.090Z,3.08
2019-03-12T06:02:44.527Z,3.12
2019-03-12T06:05:14.688Z,3.10
2019-03-12T06:07:44.369Z,3.11
2019-03-12T06:10:14.481Z,3.13
2019-03-12T06:12:44.103Z,3.10
2019-03-12T06:15:13.726Z,3.12
2019-03-12T06:17:43.164Z,3.09
2019-03-12T06:20:12.548Z,3.13
2019-03-12T06:22:42.078Z,3.15
2019-03-12T06:25:11.598Z,3.15
2019-03-12T06:27:40.993Z,3.08
2019-03-12T06:30:11.429Z,3.11
2019-03-12T06:32:50.438Z,3.17
2019-03-12T06:35:28.851Z,3.14
2019-03-12T06:38:07.005Z,3.19
2019-03-12T06:40:53.528Z,3.29
2019-03-12T06:43:50.152Z,3.30
2019-03-12T06:46:30.126Z,3.41
2019-03-12T06:49:24.620Z,3.42
2019-03-12T06:52:11.582Z,3.40
2019-03-12T06:54:52.239Z,3.40
2019-03-12T06:57:46.743Z,3.42
2019-03-12T07:00:41.264Z,3.60
2019-03-12T07:03:32.429Z,3.63
2019-03-12T07:06:26.896Z,3.57
2019-03-12T07:09:15.136Z,3.69
2019-03-12T07:12:03.959Z,3.69
2019-03-12T07:14:40.889Z,3.75
2019-03-12T07:17:14.671Z,3.81
2019-03-12T07:20:20.848Z,3.59
2019-03-12T07:23:07.565Z,3.87
2019-03-12T07:25:55.760Z,3.98
2019-03-12T07:28:50.944Z,4.15
2019-03-12T07:31:48.099Z,4.04
2019-03-12T07:34:37.159Z,3.96
2019-03-12T07:37:28.167Z,3.76
2019-03-12T07:40:20.573Z,3.76
2019-03-12T07:42:55.869Z,3.95
2019-03-12T07:45:44.224Z,4.65
2019-03-12T07:48:31.110Z,5.67
2019-03-12T07:51:13.821Z,6.78
2019-03-12T07:54:08.075Z,7.36
2019-03-12T07:56:51.328Z,8.79
2019-03-12T07:59:37.543Z,8.96
2019-03-12T08:02:20.345Z,9.60
2019-03-12T08:05:17.577Z,10.54
2019-03-12T08:08:04.438Z,10.72
2019-03-12T08:10:44.668Z,11.82
2019-03-12T08:13:23.895Z,10.83
2019-03-12T08:16:01.190Z,10.35
2019-03-12T08:18:45.868Z,10.87
2019-03-12T08:21:32.679Z,11.38
2019-03-12T08:24:20.138Z,11.22
2019-03-12T08:27:30.494Z,10.95
2019-03-12T08:30:09.411Z,12.33
2019-03-12T08:32:55.557Z,10.97
2019-03-12T08:35:43.773Z,10.35
2019-03-12T08:38:46.274Z,11.31
2019-03-12T08:41:31.634Z,11.58
2019-03-12T08:44:31.946Z,11.48
2019-03-12T08:47:29.642Z,11.65
2019-03-12T08:50:23.884Z,11.55
2019-03-12T08:53:10.836Z,10.57
2019-03-12T08:56:14.228Z,10.13
2019-03-12T08:59:05.524Z,10.61
2019-03-12T09:01:53.702Z,9.83
2019-03-12T09:04:36.448Z,9.39
2019-03-12T09:07:27.474Z,9.84
2019-03-12T09:10:24.770Z,8.56
2019-03-12T09:13:12.958Z,7.81
2019-03-12T09:16:06.250Z,7.09
2019-03-12T09:18:53.150Z,7.02
2019-03-12T09:21:43.109Z,6.56
2019-03-12T09:24:40.111Z,6.37
2019-03-12T09:27:31.097Z,6.58
2019-03-12T09:30:09.419Z,6.52
2019-03-12T09:32:57.510Z,6.63
2019-03-12T09:35:51.489Z,6.35
2019-03-12T09:38:38.371Z,6.79
2019-03-12T09:41:22.270Z,7.33
2019-03-12T09:44:10.487Z,7.78
2019-03-12T09:47:04.479Z,9.24
2019-03-12T09:49:38.686Z,9.55
2019-03-12T09:52:12.655Z,10.13
2019-03-12T09:55:06.678Z,10.84
2019-03-12T09:57:43.578Z,9.52
2019-03-12T10:00:21.924Z,10.22
2019-03-12T10:03:11.507Z,12.04
2019-03-12T10:06:14.931Z,11.66
2019-03-12T10:08:54.421Z,12.19
2019-03-12T10:11:31.567Z,13.18
2019-03-12T10:14:17.220Z,11.94
2019-03-12T10:17:04.199Z,13.43
2019-03-12T10:19:50.481Z,12.53
2019-03-12T10:22:37.142Z,11.23
2019-03-12T10:25:25.591Z,9.51
2019-03-12T10:28:29.034Z,9.03
2019-03-12T10:31:17.837Z,9.04
2019-03-12T10:33:55.579Z,8.95
2019-03-12T10:36:32.500Z,10.27
2019-03-12T10:40:01.956Z,8.96
2019-03-12T10:42:52.973Z,9.42
2019-03-12T10:45:35.619Z,11.13
2019-03-12T10:48:04.873Z,10.91
2019-03-12T10:50:34.140Z,9.52
2019-03-12T10:53:03.430Z,8.78
2019-03-12T10:55:32.744Z,9.35
2019-03-12T10:58:01.997Z,8.90
2019-03-12T11:00:31.256Z,8.85
2019-03-12T11:03:00.503Z,10.11
2019-03-12T11:05:29.790Z,10.18
2019-03-12T11:07:59.072Z,9.89
2019-03-12T11:10:28.414Z,10.71
2019-03-12T11:12:57.657Z,11.28
2019-03-12T11:15:26.917Z,11.09
2019-03-12T11:17:56.203Z,10.60
2019-03-12T11:20:25.574Z,10.07
2019-03-12T11:22:54.846Z,9.89
2019-03-12T11:25:27.923Z,11.50
2019-03-12T11:27:55.162Z,10.99
2019-03-12T11:30:24.552Z,10.76
2019-03-12T11:32:53.832Z,11.23
2019-03-12T11:35:23.262Z,11.75
2019-03-12T11:37:52.583Z,12.10
2019-03-12T11:40:22.071Z,10.72
2019-03-12T11:42:51.350Z,9.82
2019-03-12T11:45:31.173Z,9.89
2019-03-12T11:47:51.674Z,9.51
2019-03-12T11:50:21.453Z,10.73
2019-03-12T11:52:56.900Z,11.36
2019-03-12T11:55:23.646Z,11.34
2019-03-12T11:57:52.945Z,12.63
2019-03-12T12:00:26.450Z,13.10
2019-03-12T12:03:00.337Z,13.09
2019-03-12T12:05:26.870Z,12.98
2019-03-12T12:07:56.325Z,13.73
2019-03-12T12:10:26.155Z,13.86
2019-03-12T12:12:55.456Z,14.74
2019-03-12T12:15:24.827Z,13.42
2019-03-12T12:17:54.091Z,11.80
2019-03-12T12:20:29.609Z,12.77
2019-03-12T12:22:54.352Z,12.46
2019-03-12T12:25:23.630Z,11.62
2019-03-12T12:27:52.931Z,13.13
2019-03-12T12:30:22.242Z,13.64
2019-03-12T12:32:51.531Z,12.35
2019-03-12T12:35:20.879Z,14.05
2019-03-12T12:37:50.256Z,12.63
2019-03-12T12:40:19.640Z,13.90
2019-03-12T12:42:48.934Z,12.46
2019-03-12T12:45:19.089Z,11.84
2019-03-12T12:47:48.362Z,12.29
2019-03-12T12:50:17.733Z,11.28
2019-03-12T12:52:46.971Z,10.61
2019-03-12T12:55:16.414Z,10.63
2019-03-12T12:57:45.695Z,10.74
2019-03-12T13:00:17.487Z,10.37
2019-03-12T13:02:46.751Z,11.40
2019-03-12T13:05:16.159Z,11.67
2019-03-12T13:07:45.409Z,10.85
2019-03-12T13:10:20.235Z,10.78
2019-03-12T13:12:49.492Z,10.41
2019-03-12T13:15:18.763Z,10.16
2019-03-12T13:17:48.130Z,10.01
2019-03-12T13:20:17.371Z,10.20
2019-03-12T13:22:46.639Z,10.33
2019-03-12T13:25:16.093Z,10.29
2019-03-12T13:27:45.418Z,10.16
2019-03-12T13:30:16.662Z,10.49
2019-03-12T13:32:45.927Z,10.04
2019-03-12T13:35:15.685Z,9.99
2019-03-12T13:37:45.053Z,9.93
2019-03-12T13:40:15.526Z,10.21
2019-03-12T13:42:44.815Z,10.28
2019-03-12T13:45:15.260Z,10.27
2019-03-12T13:47:44.881Z,10.58
2019-03-12T13:50:15.045Z,10.29
2019-03-12T13:52:44.467Z,10.19
2019-03-12T13:55:14.679Z,9.67
2019-03-12T13:57:44.400Z,9.65
2019-03-12T14:00:18.310Z,10.03
2019-03-12T14:02:47.844Z,10.30
2019-03-12T14:05:17.201Z,9.97
2019-03-12T14:07:46.660Z,9.71
2019-03-12T14:10:20.394Z,9.40
2019-03-12T14:12:49.963Z,9.03
2019-03-12T14:15:27.448Z,9.16
2019-03-12T14:17:56.795Z,9.25
2019-03-12T14:20:45.670Z,9.49
2019-03-12T14:23:17.494Z,9.43
2019-03-12T14:25:47.150Z,9.81
2019-03-12T14:28:16.386Z,9.98
2019-03-12T14:30:45.739Z,10.12
2019-03-12T14:33:15.098Z,9.80
2019-03-12T14:35:51.351Z,9.41
2019-03-12T14:38:15.576Z,9.46
2019-03-12T14:40:44.839Z,9.48
2019-03-12T14:43:14.085Z,9.53
2019-03-12T14:45:49.718Z,9.35
2019-03-12T14:48:43.537Z,9.38
2019-03-12T14:51:22.973Z,9.28
2019-03-12T14:53:53.309Z,9.18
2019-03-12T14:56:23.139Z,9.24
2019-03-12T14:58:52.401Z,9.22
2019-03-12T15:01:21.653Z,9.22
2019-03-12T15:03:50.926Z,9.21
2019-03-12T15:06:20.174Z,9.26
2019-03-12T15:08:49.402Z,9.55
2019-03-12T15:11:18.660Z,9.47
2019-03-12T15:13:47.885Z,9.37
2019-03-12T15:16:17.154Z,9.02
2019-03-12T15:18:52.323Z,8.95
2019-03-12T15:21:21.605Z,9.24
2019-03-12T15:23:50.838Z,9.26
2019-03-12T15:26:20.074Z,9.30
2019-03-12T15:28:49.339Z,9.12
2019-03-12T15:31:18.579Z,9.44
2019-03-12T15:33:48.017Z,9.35
2019-03-12T15:36:17.302Z,9.27
2019-03-12T15:38:46.552Z,9.14
2019-03-12T15:41:15.823Z,9.22
2019-03-12T15:43:45.148Z,9.21
2019-03-12T15:46:14.388Z,9.15
2019-03-12T15:48:43.669Z,8.97
2019-03-12T15:51:12.982Z,9.25
2019-03-12T15:53:42.219Z,9.28
2019-03-12T15:56:11.573Z,9.04
2019-03-12T15:58:40.811Z,9.15
2019-03-12T16:01:10.126Z,8.95
2019-03-12T16:03:41.715Z,8.95
2019-03-12T16:06:10.438Z,8.94
2019-03-12T16:08:39.710Z,9.04
2019-03-12T16:11:08.975Z,8.82
2019-03-12T16:13:38.341Z,8.83
2019-03-12T16:16:07.597Z,8.83
2019-03-12T16:18:36.852Z,8.69
2019-03-12T16:21:06.145Z,8.65
2019-03-12T16:23:35.424Z,8.62
2019-03-12T16:26:04.778Z,8.61
2019-03-12T16:28:34.061Z,8.60
2019-03-12T16:31:03.322Z,8.61
2019-03-12T16:33:32.588Z,8.47
2019-03-12T16:36:01.907Z,8.53
2019-03-12T16:38:31.178Z,8.56
2019-03-12T16:41:02.930Z,8.53
2019-03-12T16:43:32.332Z,8.46
2019-03-12T16:46:01.628Z,8.34
2019-03-12T16:48:30.887Z,8.38
2019-03-12T16:51:00.136Z,8.48
2019-03-12T16:53:29.402Z,8.44
2019-03-12T16:55:58.629Z,8.35
2019-03-12T16:58:27.939Z,8.30
2019-03-12T17:00:57.184Z,8.33
2019-03-12T17:03:26.436Z,8.23
2019-03-12T17:05:55.694Z,8.31
2019-03-12T17:08:24.978Z,8.33
2019-03-12T17:11:02.073Z,8.22
2019-03-12T17:13:25.231Z,8.11
2019-03-12T17:15:55.158Z,7.98
2019-03-12T17:18:24.486Z,8.12
2019-03-12T17:20:53.834Z,8.02
2019-03-12T17:23:24.255Z,7.81
2019-03-12T17:25:53.693Z,7.85
2019-03-12T17:28:22.970Z,7.85
2019-03-12T17:30:52.245Z,7.78
2019-03-12T17:33:21.520Z,7.72
2019-03-12T17:35:52.569Z,7.83
2019-03-12T17:38:21.898Z,7.71
2019-03-12T17:40:51.172Z,7.76
2019-03-12T17:43:20.468Z,7.77
2019-03-12T17:45:49.766Z,7.70
2019-03-12T17:48:19.396Z,7.75
2019-03-12T17:50:48.668Z,7.67
2019-03-12T17:53:17.941Z,7.66
2019-03-12T17:55:47.227Z,7.71
2019-03-12T17:58:16.488Z,7.69
2019-03-12T18:00:45.791Z,7.65
2019-03-12T18:03:15.151Z,7.72
2019-03-12T18:05:44.766Z,7.73
2019-03-12T18:08:14.093Z,7.52
2019-03-12T18:10:43.375Z,7.51
2019-03-12T18:13:12.702Z,7.52
2019-03-12T18:15:41.970Z,7.43
2019-03-12T18:18:11.290Z,7.64
2019-03-12T18:20:43.748Z,7.51
2019-03-12T18:23:11.615Z,7.48
2019-03-12T18:25:40.935Z,7.40
2019-03-12T18:28:10.304Z,7.32
2019-03-12T18:30:39.935Z,7.55
2019-03-12T18:33:09.203Z,7.36
2019-03-12T18:35:38.490Z,7.32
2019-03-12T18:38:07.807Z,7.35
2019-03-12T18:40:37.141Z,7.26
2019-03-12T18:43:06.620Z,7.41
2019-03-12T18:45:35.898Z,7.35
2019-03-12T18:48:05.267Z,7.37
2019-03-12T18:50:34.603Z,7.25
2019-03-12T18:53:03.996Z,7.27
2019-03-12T18:55:44.692Z,7.34
2019-03-12T18:58:13.987Z,7.24
2019-03-12T19:00:48.371Z,7.30
2019-03-12T19:03:17.722Z,7.29
2019-03-12T19:05:48.160Z,7.25
2019-03-12T19:08:18.992Z,7.31
2019-03-12T19:10:48.659Z,7.24
2019-03-12T19:13:20.248Z,7.25
2019-03-12T19:15:49.926Z,7.25
2019-03-12T19:18:20.732Z,7.30
2019-03-12T19:20:51.727Z,7.32
2019-03-12T19:23:22.441Z,7.33
2019-03-12T19:25:53.300Z,7.32
2019-03-12T19:28:23.402Z,7.26
2019-03-12T19:31:05.695Z,7.16
2019-03-12T19:33:36.615Z,7.27
2019-03-12T19:36:06.409Z,7.35
2019-03-12T19:38:36.564Z,7.32
2019-03-12T19:41:06.075Z,7.21
2019-03-12T19:43:36.327Z,7.21
2019-03-12T19:46:06.036Z,7.10
2019-03-12T19:48:35.497Z,7.16
2019-03-12T19:51:05.105Z,7.15
2019-03-12T19:53:34.652Z,7.15
2019-03-12T19:56:05.671Z,7.19
2019-03-12T19:58:35.074Z,7.16
2019-03-12T20:01:05.287Z,7.08
2019-03-12T20:03:34.653Z,7.03
2019-03-12T20:06:03.961Z,7.14
2019-03-12T20:08:33.251Z,7.09
2019-03-12T20:11:58.615Z,7.08
2019-03-12T20:15:24.220Z,7.20
2019-03-12T20:18:38.626Z,7.14
2019-03-12T20:21:38.037Z,7.16
2019-03-12T20:24:49.454Z,7.12
2019-03-12T20:27:46.865Z,7.22
2019-03-12T20:31:11.483Z,7.12
2019-03-12T20:34:21.370Z,7.11
2019-03-12T20:37:45.627Z,7.03
2019-03-12T20:41:00.868Z,6.97
2019-03-12T20:44:25.258Z,6.98
2019-03-12T20:47:39.320Z,6.98
2019-03-12T20:50:48.125Z,7.11
2019-03-12T20:54:14.189Z,7.01
2019-03-12T20:57:51.655Z,7.01
2019-03-12T21:01:09.351Z,7.10
2019-03-12T21:04:31.559Z,7.04
2019-03-12T21:07:38.438Z,7.07
2019-03-12T21:10:54.254Z,7.02
2019-03-12T21:14:25.628Z,6.99
2019-03-12T21:17:47.694Z,7.03
2019-03-12T21:21:08.802Z,6.92
2019-03-12T21:24:05.363Z,7.07
2019-03-12T21:27:07.942Z,6.90
2019-03-12T21:29:45.393Z,7.01
2019-03-12T21:32:15.888Z,7.04
2019-03-12T21:34:45.326Z,6.99
2019-03-12T21:37:14.711Z,7.07
2019-03-12T21:39:54.436Z,7.01
2019-03-12T21:42:16.224Z,6.91
2019-03-12T21:44:45.778Z,6.94
2019-03-12T21:47:15.434Z,6.98
2019-03-12T21:49:45.331Z,7.10
2019-03-12T21:52:14.730Z,7.01
2019-03-12T21:54:45.114Z,6.92
2019-03-12T21:57:15.087Z,7.02
2019-03-12T21:59:45.210Z,7.06
2019-03-12T22:02:15.065Z,7.10
2019-03-12T22:04:45.218Z,7.07
2019-03-12T22:07:15.098Z,6.93
2019-03-12T22:09:44.545Z,7.08
2019-03-12T22:12:13.902Z,7.07
2019-03-12T22:14:43.464Z,6.96
2019-03-12T22:17:13.046Z,6.95
2019-03-12T22:19:53.467Z,7.05
2019-03-12T22:22:27.611Z,7.06
2019-03-12T22:24:57.009Z,7.06
2019-03-12T22:27:26.671Z,6.95
2019-03-12T22:29:56.011Z,6.90
2019-03-12T22:32:25.481Z,7.06
2019-03-12T22:34:54.907Z,7.01
2019-03-12T22:37:24.569Z,6.92
2019-03-12T22:39:53.958Z,7.08
2019-03-12T22:42:23.458Z,7.04
2019-03-12T22:44:52.901Z,7.03
2019-03-12T22:47:22.180Z,6.90
2019-03-12T22:49:51.919Z,6.85
2019-03-12T22:52:21.287Z,6.87
2019-03-12T22:54:50.585Z,6.99
2019-03-12T22:57:19.926Z,6.98
2019-03-12T22:59:49.218Z,7.01
2019-03-12T23:02:19.142Z,6.90
2019-03-12T23:04:48.798Z,6.99
2019-03-12T23:07:18.147Z,7.01
2019-03-12T23:09:47.557Z,6.94
2019-03-12T23:12:17.331Z,7.02
2019-03-12T23:14:46.558Z,6.95
2019-03-12T23:17:15.820Z,7.02
2019-03-12T23:19:45.093Z,7.04
2019-03-12T23:22:14.474Z,7.04
2019-03-12T23:24:44.235Z,7.12
2019-03-12T23:27:15.997Z,7.21
2019-03-12T23:29:45.531Z,7.03
2019-03-12T23:32:15.963Z,7.13
2019-03-12T23:34:46.586Z,7.19
2019-03-12T23:37:16.470Z,7.11
2019-03-12T23:39:45.734Z,7.13
2019-03-12T23:42:29.947Z,7.17
2019-03-12T23:44:59.282Z,7.27
2019-03-12T23:47:28.619Z,7.21
2019-03-12T23:49:57.918Z,7.29
2019-03-12T23:52:27.587Z,7.36
2019-03-12T23:54:56.969Z,7.30
2019-03-12T23:57:26.203Z,7.35
2019-03-12T23:59:55.497Z,7.37
